createdAt,value
2019-03-05T00:00:38.000Z,991.5
2019-03-05T00:01:49.000Z,991.6
2019-03-05T00:03:01.000Z,991.5
2019-03-05T00:04:15.000Z,991.6
2019-03-05T00:05:27.000Z,991.6
2019-03-05T00:06:38.000Z,991.5
2019-03-05T00:07:50.000Z,991.5
2019-03-05T00:09:02.000Z,991.5
2019-03-05T00:10:16.000Z,991.6
2019-03-05T00:11:27.000Z,991.4
2019-03-05T00:12:40.000Z,991.6
2019-03-05T00:13:52.753Z,991.6
2019-03-05T00:15:04.000Z,991.5
2019-03-05T00:16:17.000Z,991.6
2019-03-05T00:17:29.000Z,991.6
2019-03-05T00:18:40.000Z,991.6
2019-03-05T00:19:53.716Z,991.7
2019-03-05T00:21:04.000Z,991.6
2019-03-05T00:22:17.000Z,991.6
2019-03-05T00:23:30.000Z,991.5
2019-03-05T00:24:41.000Z,991.6
2019-03-05T00:25:54.686Z,991.6
2019-03-05T00:27:06.088Z,991.6
2019-03-05T00:28:18.000Z,991.6
2019-03-05T00:29:31.000Z,991.7
2019-03-05T00:30:42.000Z,991.7
2019-03-05T00:31:54.000Z,991.7
2019-03-05T00:33:06.000Z,991.7
2019-03-05T00:34:19.000Z,991.6
2019-03-05T00:35:31.000Z,991.7
2019-03-05T00:36:44.000Z,991.7
2019-03-05T00:37:56.644Z,991.8
2019-03-05T00:39:08.000Z,991.8
2019-03-05T00:40:20.000Z,991.7
2019-03-05T00:41:32.000Z,991.8
2019-03-05T00:43:56.000Z,991.7
2019-03-05T00:45:09.081Z,991.7
2019-03-05T00:46:22.000Z,991.8
2019-03-05T00:47:33.000Z,991.8
2019-03-05T00:48:45.000Z,991.8
2019-03-05T00:49:58.000Z,991.8
2019-03-05T00:51:09.000Z,991.8
2019-03-05T00:52:21.000Z,991.7
2019-03-05T00:53:34.000Z,991.8
2019-03-05T00:54:47.000Z,991.7
2019-03-05T00:55:58.000Z,991.7
2019-03-05T00:57:10.000Z,991.8
2019-03-05T00:58:23.000Z,991.8
2019-03-05T00:59:36.016Z,991.8
2019-03-05T01:00:47.000Z,991.8
2019-03-05T01:02:00.000Z,991.6
2019-03-05T01:03:12.000Z,991.8
2019-03-05T01:04:24.000Z,991.7
2019-03-05T01:05:36.000Z,991.7
2019-03-05T01:06:49.000Z,991.8
2019-03-05T01:08:01.527Z,991.8
2019-03-05T01:09:12.000Z,991.9
2019-03-05T01:10:25.000Z,991.8
2019-03-05T01:11:38.000Z,991.8
2019-03-05T01:12:50.000Z,991.8
2019-03-05T01:14:01.000Z,991.8
2019-03-05T01:15:14.000Z,991.7
2019-03-05T01:16:26.000Z,991.8
2019-03-05T01:17:39.000Z,991.7
2019-03-05T01:18:50.000Z,991.7
2019-03-05T01:20:03.000Z,991.7
2019-03-05T01:21:15.680Z,991.7
2019-03-05T01:22:27.000Z,991.6
2019-03-05T01:23:40.000Z,991.7
2019-03-05T01:24:52.268Z,991.7
2019-03-05T01:26:03.000Z,991.8
2019-03-05T01:27:16.000Z,991.7
2019-03-05T01:28:28.000Z,991.7
2019-03-05T01:29:41.000Z,991.6
2019-03-05T01:30:53.000Z,991.7
2019-03-05T01:32:04.000Z,991.7
2019-03-05T01:33:16.000Z,991.6
2019-03-05T01:34:29.000Z,991.6
2019-03-05T01:35:42.023Z,991.7
2019-03-05T01:36:54.222Z,991.7
2019-03-05T01:38:06.000Z,991.7
2019-03-05T01:39:18.000Z,991.6
2019-03-05T01:40:30.000Z,991.7
2019-03-05T01:41:41.000Z,991.8
2019-03-05T01:42:55.000Z,991.7
2019-03-05T01:44:06.000Z,991.6
2019-03-05T01:45:19.000Z,991.6
2019-03-05T01:47:42.000Z,991.7
2019-03-05T01:48:56.181Z,991.8
2019-03-05T01:50:08.000Z,991.7
2019-03-05T01:51:20.560Z,991.7
2019-03-05T01:52:31.000Z,991.8
2019-03-05T01:53:44.965Z,991.8
2019-03-05T01:54:56.000Z,991.7
2019-03-05T01:57:20.000Z,991.8
2019-03-05T01:58:32.000Z,991.8
2019-03-05T01:59:45.925Z,991.9
2019-03-05T02:02:09.000Z,991.9
2019-03-05T02:03:21.000Z,991.9
2019-03-05T02:04:33.000Z,991.9
2019-03-05T02:05:46.905Z,991.9
2019-03-05T02:19:01.057Z,991.9
2019-03-05T02:20:13.251Z,992
2019-03-05T02:22:37.643Z,991.8
2019-03-05T02:23:49.843Z,991.9
2019-03-05T02:27:26.425Z,991.9
2019-03-05T02:28:39.070Z,991.8
2019-03-05T02:31:03.015Z,991.9
2019-03-05T02:34:39.060Z,991.9
2019-03-05T02:35:51.795Z,991.9
2019-03-05T02:38:16.189Z,992
2019-03-05T02:39:28.379Z,992
2019-03-05T02:40:40.573Z,992
2019-03-05T02:41:52.776Z,992
2019-03-05T02:43:04.965Z,992
2019-03-05T02:44:17.167Z,991.9
2019-03-05T02:46:41.556Z,991.9
2019-03-05T02:47:52.000Z,991.9
2019-03-05T02:49:05.949Z,992
2019-03-05T02:50:18.144Z,992
2019-03-05T02:51:29.000Z,992
2019-03-05T02:52:41.000Z,991.9
2019-03-05T02:55:06.000Z,991.9
2019-03-05T02:56:19.000Z,992
2019-03-05T02:57:30.000Z,991.9
2019-03-05T02:58:42.000Z,992
2019-03-05T02:59:55.000Z,992
2019-03-05T03:01:06.000Z,991.9
2019-03-05T03:02:19.000Z,992
2019-03-05T03:03:31.000Z,991.9
2019-03-05T03:04:44.000Z,991.9
2019-03-05T03:05:56.685Z,992
2019-03-05T03:07:07.000Z,992
2019-03-05T03:08:20.000Z,992
2019-03-05T03:09:33.000Z,991.9
2019-03-05T03:10:45.000Z,992
2019-03-05T03:11:57.000Z,992
2019-03-05T03:13:08.000Z,992
2019-03-05T03:14:21.000Z,992
2019-03-05T03:15:33.000Z,991.9
2019-03-05T03:16:45.000Z,992
2019-03-05T03:17:58.000Z,992
2019-03-05T03:19:09.000Z,992
2019-03-05T03:20:22.000Z,992.2
2019-03-05T03:21:35.223Z,992
2019-03-05T03:22:47.000Z,992.2
2019-03-05T03:23:59.655Z,992.1
2019-03-05T03:25:10.000Z,992
2019-03-05T03:26:23.000Z,992
2019-03-05T03:27:36.000Z,992.1
2019-03-05T03:28:47.000Z,992.2
2019-03-05T03:30:00.000Z,992.1
2019-03-05T03:31:11.000Z,992.1
2019-03-05T03:32:24.989Z,992.1
2019-03-05T03:33:37.000Z,992.1
2019-03-05T03:34:48.000Z,992.2
2019-03-05T03:36:00.000Z,992.1
2019-03-05T03:38:24.000Z,992.1
2019-03-05T03:39:37.000Z,992.2
2019-03-05T03:40:50.000Z,992
2019-03-05T03:43:13.000Z,992.1
2019-03-05T03:44:25.000Z,992.3
2019-03-05T03:45:38.000Z,992.2
2019-03-05T03:46:51.332Z,992.2
2019-03-05T03:48:03.525Z,992.2
2019-03-05T03:49:14.000Z,992.2
2019-03-05T03:50:26.000Z,992.3
2019-03-05T03:51:40.000Z,992.2
2019-03-05T03:52:52.000Z,992.2
2019-03-05T03:54:03.000Z,992.2
2019-03-05T03:56:28.000Z,992.2
2019-03-05T03:57:41.095Z,992.3
2019-03-05T03:58:52.000Z,992.3
2019-03-05T04:00:05.484Z,992.2
2019-03-05T04:01:17.000Z,992.3
2019-03-05T04:02:29.000Z,992.3
2019-03-05T04:03:41.000Z,992.3
2019-03-05T04:04:54.000Z,992.5
2019-03-05T04:06:06.000Z,992.5
2019-03-05T04:07:17.000Z,992.5
2019-03-05T04:08:30.858Z,992.6
2019-03-05T04:09:42.000Z,992.5
2019-03-05T04:10:54.000Z,992.4
2019-03-05T04:12:07.000Z,992.5
2019-03-05T04:13:19.000Z,992.6
2019-03-05T04:14:31.000Z,992.5
2019-03-05T04:15:43.000Z,992.3
2019-03-05T04:16:55.000Z,992.5
2019-03-05T04:18:07.000Z,992.4
2019-03-05T04:19:19.000Z,992.4
2019-03-05T04:20:31.000Z,992.5
2019-03-05T04:21:43.000Z,992.4
2019-03-05T04:22:56.000Z,992.5
2019-03-05T04:24:08.000Z,992.6
2019-03-05T04:25:20.000Z,992.5
2019-03-05T04:26:33.000Z,992.6
2019-03-05T04:27:45.000Z,992.5
2019-03-05T04:28:58.000Z,992.5
2019-03-05T04:30:09.000Z,992.6
2019-03-05T04:31:21.000Z,992.5
2019-03-05T04:32:33.000Z,992.5
2019-03-05T04:33:46.963Z,992.6
2019-03-05T04:34:59.000Z,992.6
2019-03-05T04:36:10.000Z,992.4
2019-03-05T04:37:22.000Z,992.6
2019-03-05T04:38:35.741Z,992.5
2019-03-05T04:39:46.000Z,992.5
2019-03-05T04:40:59.000Z,992.7
2019-03-05T04:42:11.000Z,992.6
2019-03-05T04:43:23.000Z,992.8
2019-03-05T04:44:35.000Z,992.5
2019-03-05T04:45:47.000Z,992.6
2019-03-05T04:47:00.000Z,992.7
2019-03-05T04:48:13.000Z,992.4
2019-03-05T04:49:25.000Z,992.5
2019-03-05T04:50:36.000Z,992.5
2019-03-05T04:51:48.000Z,992.5
2019-03-05T04:53:01.000Z,992.5
2019-03-05T04:54:14.000Z,992.5
2019-03-05T04:55:25.000Z,992.7
2019-03-05T04:56:38.000Z,992.5
2019-03-05T04:57:50.000Z,992.5
2019-03-05T04:59:02.000Z,992.5
2019-03-05T05:00:15.263Z,992.5
2019-03-05T05:01:27.461Z,992.6
2019-03-05T05:02:38.000Z,992.5
2019-03-05T05:03:50.000Z,992.6
2019-03-05T05:05:03.000Z,992.5
2019-03-05T05:06:16.000Z,992.6
2019-03-05T05:07:27.000Z,992.6
2019-03-05T05:08:39.000Z,992.6
2019-03-05T05:09:52.082Z,992.7
2019-03-05T05:11:04.000Z,992.7
2019-03-05T05:12:17.000Z,992.7
2019-03-05T05:13:29.433Z,992.6
2019-03-05T05:14:40.000Z,992.8
2019-03-05T05:15:53.000Z,992.7
2019-03-05T05:17:04.000Z,992.8
2019-03-05T05:18:18.000Z,992.8
2019-03-05T05:19:29.000Z,992.8
2019-03-05T05:20:42.630Z,992.8
2019-03-05T05:21:53.000Z,992.9
2019-03-05T05:23:06.000Z,992.9
2019-03-05T05:24:19.174Z,992.9
2019-03-05T05:25:30.000Z,993
2019-03-05T05:26:43.567Z,992.9
2019-03-05T05:27:54.000Z,992.9
2019-03-05T05:29:07.000Z,993
2019-03-05T05:30:19.000Z,992.8
2019-03-05T05:31:32.000Z,993.1
2019-03-05T05:32:44.000Z,992.9
2019-03-05T05:33:56.738Z,993.1
2019-03-05T05:35:08.000Z,993.1
2019-03-05T05:36:20.000Z,993
2019-03-05T05:37:33.032Z,993.1
2019-03-05T05:38:44.000Z,993.2
2019-03-05T05:39:56.000Z,993.1
2019-03-05T05:41:09.000Z,993.1
2019-03-05T05:42:21.000Z,993.1
2019-03-05T05:43:34.000Z,993.6
2019-03-05T05:45:58.689Z,993.2
2019-03-05T05:47:10.000Z,993.2
2019-03-05T05:48:23.000Z,993.2
2019-03-05T05:50:47.478Z,993.2
2019-03-05T05:51:59.679Z,993.2
2019-03-05T05:53:10.000Z,993.2
2019-03-05T05:54:24.000Z,993.2
2019-03-05T05:55:36.000Z,993.2
2019-03-05T05:56:47.000Z,993.4
2019-03-05T05:58:00.000Z,993.2
2019-03-05T05:59:12.851Z,993.2
2019-03-05T06:00:25.042Z,993.4
2019-03-05T06:01:36.000Z,993.2
2019-03-05T06:02:49.429Z,993.3
2019-03-05T06:04:00.000Z,993.3
2019-03-05T06:05:13.000Z,993.4
2019-03-05T06:06:26.018Z,993.5
2019-03-05T06:07:38.000Z,993.4
2019-03-05T06:08:50.000Z,993.5
2019-03-05T06:10:02.000Z,993.6
2019-03-05T06:11:13.000Z,993.5
2019-03-05T06:12:26.000Z,993.5
2019-03-05T06:13:38.000Z,993.5
2019-03-05T06:14:51.387Z,993.6
2019-03-05T06:16:03.000Z,993.6
2019-03-05T06:17:14.000Z,993.5
2019-03-05T06:18:26.000Z,993.5
2019-03-05T06:19:40.000Z,993.5
2019-03-05T06:20:52.369Z,993.6
2019-03-05T06:22:03.000Z,993.5
2019-03-05T06:23:16.000Z,993.5
2019-03-05T06:24:27.000Z,993.6
2019-03-05T06:25:41.147Z,993.6
2019-03-05T06:26:53.344Z,993.6
2019-03-05T06:28:05.000Z,993.7
2019-03-05T06:29:17.000Z,993.7
2019-03-05T06:30:29.000Z,993.7
2019-03-05T06:31:42.000Z,993.6
2019-03-05T06:32:54.321Z,993.8
2019-03-05T06:34:05.000Z,993.8
2019-03-05T06:35:17.000Z,993.8
2019-03-05T06:36:30.906Z,993.9
2019-03-05T06:37:42.000Z,993.9
2019-03-05T06:38:54.000Z,993.9
2019-03-05T06:40:07.000Z,993.9
2019-03-05T06:41:18.000Z,993.8
2019-03-05T06:42:31.000Z,993.9
2019-03-05T06:43:43.000Z,993.9
2019-03-05T06:44:55.000Z,993.9
2019-03-05T06:46:07.000Z,993.9
2019-03-05T06:47:20.000Z,994
2019-03-05T06:48:31.000Z,994
2019-03-05T06:49:45.000Z,993.9
2019-03-05T06:50:56.000Z,993.9
2019-03-05T06:52:08.000Z,994
2019-03-05T06:53:20.000Z,994
2019-03-05T06:54:32.000Z,994.1
2019-03-05T06:55:46.004Z,994.2
2019-03-05T06:56:58.000Z,994.1
2019-03-05T06:58:09.000Z,994.1
2019-03-05T06:59:22.000Z,994.1
2019-03-05T07:00:33.000Z,994.1
2019-03-05T07:01:47.019Z,994.2
2019-03-05T07:02:58.000Z,994.2
2019-03-05T07:04:11.000Z,994.2
2019-03-05T07:05:23.000Z,994.3
2019-03-05T07:06:34.000Z,994.3
2019-03-05T07:07:46.000Z,994.2
2019-03-05T07:09:00.000Z,994.3
2019-03-05T07:10:11.000Z,994.4
2019-03-05T07:11:24.000Z,994.3
2019-03-05T07:12:36.000Z,994.2
2019-03-05T07:13:48.000Z,994.3
2019-03-05T07:15:01.169Z,994.3
2019-03-05T07:16:13.362Z,994.2
2019-03-05T07:17:25.000Z,994.3
2019-03-05T07:18:37.000Z,994.4
2019-03-05T07:19:49.950Z,994.4
2019-03-05T07:21:01.000Z,994.3
2019-03-05T07:22:14.433Z,994.3
2019-03-05T07:23:25.000Z,994.4
2019-03-05T07:24:37.000Z,994.5
2019-03-05T07:25:50.091Z,994.4
2019-03-05T07:27:03.000Z,994.4
2019-03-05T07:28:14.000Z,994.5
2019-03-05T07:29:26.000Z,994.6
2019-03-05T07:30:39.697Z,994.9
2019-03-05T07:31:50.000Z,994.6
2019-03-05T07:33:03.000Z,994.7
2019-03-05T07:34:15.000Z,994.7
2019-03-05T07:35:27.000Z,994.8
2019-03-05T07:36:40.000Z,994.7
2019-03-05T07:37:51.000Z,994.6
2019-03-05T07:39:05.049Z,994.5
2019-03-05T07:40:17.000Z,994.7
2019-03-05T07:41:28.000Z,994.7
2019-03-05T07:42:40.000Z,994.7
2019-03-05T07:43:52.000Z,994.7
2019-03-05T07:45:04.000Z,994.8
2019-03-05T07:46:18.000Z,994.7
2019-03-05T07:47:30.406Z,994.8
2019-03-05T07:48:42.000Z,994.8
2019-03-05T07:49:54.000Z,994.8
2019-03-05T07:51:06.991Z,994.6
2019-03-05T07:52:19.182Z,994.7
2019-03-05T07:53:31.000Z,994.7
2019-03-05T07:54:43.567Z,994.7
2019-03-05T07:55:55.000Z,994.6
2019-03-05T07:57:07.000Z,994.7
2019-03-05T07:58:20.000Z,994.7
2019-03-05T07:59:31.000Z,994.9
2019-03-05T08:00:43.000Z,994.7
2019-03-05T08:01:56.729Z,994.8
2019-03-05T08:03:08.920Z,994.8
2019-03-05T08:05:33.000Z,994.8
2019-03-05T08:06:44.000Z,994.8
2019-03-05T08:07:57.000Z,994.8
2019-03-05T08:09:09.896Z,994.9
2019-03-05T08:10:22.008Z,995
2019-03-05T08:11:33.000Z,994.9
2019-03-05T08:12:46.000Z,995
2019-03-05T08:13:58.666Z,995.1
2019-03-05T08:15:10.866Z,994.9
2019-03-05T08:16:23.000Z,995
2019-03-05T08:17:35.000Z,995
2019-03-05T08:18:46.000Z,995
2019-03-05T08:19:59.000Z,995
2019-03-05T08:21:11.000Z,995
2019-03-05T08:22:24.029Z,994.9
2019-03-05T08:23:36.218Z,994.8
2019-03-05T08:24:47.000Z,994.9
2019-03-05T08:26:00.000Z,995
2019-03-05T08:27:11.000Z,995
2019-03-05T08:28:23.000Z,995.1
2019-03-05T08:29:37.000Z,995.1
2019-03-05T08:30:49.382Z,995
2019-03-05T08:32:01.000Z,995.1
2019-03-05T08:33:13.771Z,995.1
2019-03-05T08:34:25.000Z,995.1
2019-03-05T08:35:37.000Z,995.2
2019-03-05T08:36:50.353Z,995
2019-03-05T08:38:02.000Z,995.1
2019-03-05T08:39:13.000Z,995.2
2019-03-05T08:40:25.000Z,995.2
2019-03-05T08:41:39.000Z,995.3
2019-03-05T08:42:50.000Z,995.4
2019-03-05T08:44:03.000Z,995.4
2019-03-05T08:45:14.000Z,995.3
2019-03-05T08:46:27.090Z,995.4
2019-03-05T08:47:40.000Z,995.5
2019-03-05T08:48:51.000Z,995.5
2019-03-05T08:50:04.476Z,995.3
2019-03-05T08:51:16.000Z,995.3
2019-03-05T08:52:28.000Z,995.4
2019-03-05T08:53:41.000Z,995.4
2019-03-05T08:54:53.000Z,995.4
2019-03-05T08:56:04.000Z,995.5
2019-03-05T08:57:17.000Z,995.6
2019-03-05T08:58:28.000Z,995.4
2019-03-05T08:59:42.030Z,995.4
2019-03-05T09:00:53.000Z,995.3
2019-03-05T09:03:18.000Z,995.5
2019-03-05T09:04:30.000Z,995.5
2019-03-05T09:05:41.000Z,995.4
2019-03-05T09:06:55.198Z,995.6
2019-03-05T09:08:06.000Z,995.6
2019-03-05T09:09:19.000Z,995.6
2019-03-05T09:11:43.000Z,995.6
2019-03-05T09:12:55.000Z,995.6
2019-03-05T09:14:07.000Z,995.5
2019-03-05T09:15:20.000Z,995.4
2019-03-05T09:16:32.740Z,995.6
2019-03-05T09:17:44.000Z,995.7
2019-03-05T09:18:56.000Z,995.8
2019-03-05T09:20:09.000Z,995.6
2019-03-05T09:21:21.052Z,995.6
2019-03-05T09:22:32.000Z,995.6
2019-03-05T09:23:45.903Z,995.7
2019-03-05T09:24:58.000Z,996
2019-03-05T09:26:10.000Z,995.8
2019-03-05T09:27:21.000Z,995.8
2019-03-05T09:28:33.000Z,995.7
2019-03-05T09:29:46.000Z,995.8
2019-03-05T09:30:59.071Z,995.7
2019-03-05T09:32:11.000Z,995.9
2019-03-05T09:33:22.000Z,995.9
2019-03-05T09:34:34.000Z,996
2019-03-05T09:35:47.000Z,996.1
2019-03-05T09:36:59.000Z,996
2019-03-05T09:38:11.000Z,996
2019-03-05T09:39:24.000Z,996.1
2019-03-05T09:40:35.000Z,996.1
2019-03-05T09:41:48.000Z,996
2019-03-05T09:43:01.012Z,996.1
2019-03-05T09:44:12.000Z,996.3
2019-03-05T09:45:25.000Z,996.2
2019-03-05T09:46:37.000Z,996.2
2019-03-05T09:47:49.801Z,996.3
2019-03-05T09:49:01.977Z,996.2
2019-03-05T09:50:14.167Z,996.2
2019-03-05T09:51:26.000Z,996.3
2019-03-05T09:52:37.000Z,996.3
2019-03-05T09:53:50.000Z,996.2
2019-03-05T09:55:02.000Z,996.3
2019-03-05T09:56:14.000Z,996.4
2019-03-05T09:57:27.000Z,996.4
2019-03-05T09:58:39.000Z,996.3
2019-03-05T09:59:51.000Z,996.4
2019-03-05T10:01:02.000Z,996.5
2019-03-05T10:02:15.000Z,996.4
2019-03-05T10:03:27.000Z,996.6
2019-03-05T10:04:40.000Z,996.5
2019-03-05T10:05:52.000Z,996.4
2019-03-05T10:07:04.000Z,996.5
2019-03-05T10:08:17.000Z,996.5
2019-03-05T10:09:29.000Z,996.6
2019-03-05T10:10:41.000Z,996.6
2019-03-05T10:11:52.000Z,996.5
2019-03-05T10:13:05.000Z,996.4
2019-03-05T10:14:18.000Z,996.5
2019-03-05T10:15:30.241Z,996.5
2019-03-05T10:16:42.000Z,996.5
2019-03-05T10:17:54.000Z,996.5
2019-03-05T10:19:05.000Z,996.6
2019-03-05T10:20:18.000Z,996.5
2019-03-05T10:21:30.000Z,996.5
2019-03-05T10:22:42.000Z,996.3
2019-03-05T10:23:54.000Z,996.6
2019-03-05T10:25:06.000Z,996.4
2019-03-05T10:26:19.987Z,996.4
2019-03-05T10:27:32.177Z,996.5
2019-03-05T10:29:56.000Z,996.4
2019-03-05T10:31:07.000Z,996.6
2019-03-05T10:32:20.000Z,996.6
2019-03-05T10:33:33.145Z,996.6
2019-03-05T10:34:45.344Z,996.5
2019-03-05T10:35:56.000Z,996.5
2019-03-05T10:37:09.727Z,996.5
2019-03-05T10:38:21.923Z,996.6
2019-03-05T10:39:33.000Z,996.5
2019-03-05T10:40:45.000Z,996.5
2019-03-05T10:41:58.505Z,996.4
2019-03-05T10:43:10.006Z,996.5
2019-03-05T10:44:22.000Z,996.5
2019-03-05T10:45:34.000Z,996.5
2019-03-05T10:46:46.000Z,996.7
2019-03-05T10:47:59.476Z,996.6
2019-03-05T10:49:11.659Z,996.6
2019-03-05T10:50:23.000Z,996.7
2019-03-05T10:51:35.000Z,996.7
2019-03-05T10:52:47.000Z,996.6
2019-03-05T10:53:59.000Z,996.6
2019-03-05T10:55:11.000Z,996.6
2019-03-05T10:56:23.000Z,996.8
2019-03-05T10:57:35.000Z,996.5
2019-03-05T10:58:48.000Z,996.6
2019-03-05T11:00:00.000Z,996.5
2019-03-05T11:01:13.597Z,996.5
2019-03-05T11:02:25.000Z,996.7
2019-03-05T11:03:36.000Z,996.5
2019-03-05T11:04:49.000Z,996.5
2019-03-05T11:06:01.000Z,996.6
2019-03-05T11:07:14.000Z,996.5
2019-03-05T11:08:25.000Z,996.6
2019-03-05T11:09:38.000Z,996.6
2019-03-05T11:10:50.000Z,996.8
2019-03-05T11:12:02.000Z,996.4
2019-03-05T11:13:15.540Z,996.6
2019-03-05T11:14:26.000Z,996.8
2019-03-05T11:15:38.000Z,996.6
2019-03-05T11:16:52.126Z,996.5
2019-03-05T11:18:03.000Z,996.6
2019-03-05T11:19:16.510Z,996.6
2019-03-05T11:20:27.000Z,996.7
2019-03-05T11:21:40.090Z,996.6
2019-03-05T11:22:52.000Z,996.6
2019-03-05T11:24:05.291Z,996.8
2019-03-05T11:25:16.000Z,996.7
2019-03-05T11:27:40.000Z,996.6
2019-03-05T11:28:53.000Z,996.7
2019-03-05T11:30:05.000Z,996.7
2019-03-05T11:31:18.000Z,996.6
2019-03-05T11:32:30.000Z,996.7
2019-03-05T11:33:42.000Z,996.8
2019-03-05T11:34:54.000Z,996.6
2019-03-05T11:36:06.000Z,996.7
2019-03-05T11:37:19.417Z,996.6
2019-03-05T11:39:43.799Z,996.7
2019-03-05T11:40:55.000Z,996.7
2019-03-05T11:42:07.000Z,996.6
2019-03-05T11:43:19.000Z,996.4
2019-03-05T11:44:31.000Z,996.7
2019-03-05T11:45:44.000Z,996.6
2019-03-05T11:47:01.000Z,996.6
2019-03-05T11:48:08.000Z,996.7
2019-03-05T11:49:20.000Z,996.6
2019-03-05T11:50:33.000Z,996.6
2019-03-05T11:51:45.743Z,996.7
2019-03-05T11:52:57.093Z,996.7
2019-03-05T11:54:10.127Z,996.6
2019-03-05T11:55:24.000Z,996.7
2019-03-05T11:56:34.522Z,996.7
2019-03-05T11:57:46.707Z,996.8
2019-03-05T11:58:58.908Z,996.8
2019-03-05T12:00:10.000Z,997
2019-03-05T12:01:23.000Z,997
2019-03-05T12:02:34.000Z,996.9
2019-03-05T12:03:47.682Z,997
2019-03-05T12:04:59.877Z,997
2019-03-05T12:06:11.000Z,996.9
2019-03-05T12:07:23.000Z,997
2019-03-05T12:08:36.000Z,997
2019-03-05T12:09:48.000Z,996.9
2019-03-05T12:11:00.846Z,996.9
2019-03-05T12:12:12.000Z,996.9
2019-03-05T12:13:24.000Z,996.9
2019-03-05T12:14:37.423Z,996.9
2019-03-05T12:15:48.000Z,996.9
2019-03-05T12:17:00.000Z,996.9
2019-03-05T12:18:12.000Z,996.9
2019-03-05T12:19:25.000Z,996.8
2019-03-05T12:20:38.000Z,996.9
2019-03-05T12:21:50.590Z,996.8
2019-03-05T12:23:01.000Z,996.8
2019-03-05T12:24:13.000Z,996.9
2019-03-05T12:25:26.000Z,996.8
2019-03-05T12:26:39.000Z,996.9
2019-03-05T12:27:50.000Z,996.6
2019-03-05T12:29:03.765Z,996.9
2019-03-05T12:30:14.000Z,996.9
2019-03-05T12:31:27.000Z,996.8
2019-03-05T12:32:40.324Z,997
2019-03-05T12:33:52.000Z,996.8
2019-03-05T12:35:03.000Z,996.9
2019-03-05T12:36:16.000Z,996.9
2019-03-05T12:37:29.000Z,996.9
2019-03-05T12:38:40.000Z,997
2019-03-05T12:39:52.000Z,996.8
2019-03-05T12:41:05.000Z,997
2019-03-05T12:42:16.000Z,996.9
2019-03-05T12:43:30.076Z,996.9
2019-03-05T12:44:41.000Z,996.8
2019-03-05T12:45:53.000Z,996.8
2019-03-05T12:47:06.000Z,996.8
2019-03-05T12:48:18.847Z,996.8
2019-03-05T12:49:30.000Z,996.7
2019-03-05T12:50:42.000Z,996.8
2019-03-05T12:51:55.425Z,996.7
2019-03-05T12:53:07.000Z,996.7
2019-03-05T12:54:18.000Z,996.7
2019-03-05T12:55:30.000Z,996.7
2019-03-05T12:56:43.000Z,996.8
2019-03-05T12:57:55.000Z,996.8
2019-03-05T13:00:20.788Z,997
2019-03-05T13:01:32.975Z,997.1
2019-03-05T13:02:44.000Z,997.5
2019-03-05T13:03:57.383Z,997.3
2019-03-05T13:05:09.000Z,997.2
2019-03-05T13:06:20.000Z,997.2
2019-03-05T13:07:33.945Z,997.2
2019-03-05T13:08:45.000Z,997.2
2019-03-05T13:09:58.000Z,997.2
2019-03-05T13:11:09.000Z,997.2
2019-03-05T13:12:22.000Z,997.2
2019-03-05T13:13:33.000Z,997.2
2019-03-05T13:14:47.113Z,997.2
2019-03-05T13:15:58.000Z,997.2
2019-03-05T13:17:10.000Z,997.2
2019-03-05T13:18:23.695Z,997.2
2019-03-05T13:19:34.000Z,997.2
2019-03-05T13:20:47.000Z,997.2
2019-03-05T13:21:59.000Z,997.2
2019-03-05T13:23:11.000Z,997.2
2019-03-05T13:24:24.000Z,997.2
2019-03-05T13:25:35.000Z,997.2
2019-03-05T13:26:48.000Z,997.2
2019-03-05T13:28:01.000Z,997.2
2019-03-05T13:29:12.000Z,997.2
2019-03-05T13:30:24.000Z,997.1
2019-03-05T13:31:36.000Z,997.2
2019-03-05T13:32:48.000Z,997.3
2019-03-05T13:34:02.000Z,997.2
2019-03-05T13:35:13.000Z,997.3
2019-03-05T13:36:25.000Z,997.3
2019-03-05T13:37:37.000Z,997.2
2019-03-05T13:38:49.000Z,997.2
2019-03-05T13:40:02.000Z,997.2
2019-03-05T13:41:14.000Z,997.3
2019-03-05T13:42:26.000Z,997.2
2019-03-05T13:43:39.759Z,997.3
2019-03-05T13:44:50.000Z,997.2
2019-03-05T13:46:04.152Z,997.2
2019-03-05T13:47:15.000Z,997.4
2019-03-05T13:48:27.000Z,997.4
2019-03-05T13:49:39.000Z,997.2
2019-03-05T13:50:52.930Z,997.2
2019-03-05T13:52:04.000Z,997.3
2019-03-05T13:53:16.000Z,997.3
2019-03-05T13:54:28.000Z,997.4
2019-03-05T13:55:41.709Z,997.4
2019-03-05T13:56:53.000Z,997.3
2019-03-05T13:58:05.000Z,997.3
2019-03-05T13:59:18.000Z,997.3
2019-03-05T14:00:30.000Z,997.4
2019-03-05T14:01:42.000Z,997.4
2019-03-05T14:02:53.000Z,997.4
2019-03-05T14:04:06.000Z,997.4
2019-03-05T14:05:19.251Z,997.4
2019-03-05T14:06:30.000Z,997.4
2019-03-05T14:07:43.000Z,997.4
2019-03-05T14:08:54.000Z,997.4
2019-03-05T14:10:07.000Z,997.5
2019-03-05T14:11:20.000Z,997.4
2019-03-05T14:12:32.408Z,997.4
2019-03-05T14:13:44.000Z,997.5
2019-03-05T14:14:55.000Z,997.6
2019-03-05T14:16:07.000Z,997.5
2019-03-05T14:17:20.000Z,997.5
2019-03-05T14:18:32.000Z,997.5
2019-03-05T14:20:57.000Z,997.6
2019-03-05T14:22:08.000Z,997.6
2019-03-05T14:23:22.159Z,997.7
2019-03-05T14:24:33.000Z,997.6
2019-03-05T14:25:46.000Z,997.7
2019-03-05T14:26:57.000Z,997.8
2019-03-05T14:28:09.000Z,997.8
2019-03-05T14:29:22.000Z,997.7
2019-03-05T14:30:34.000Z,997.7
2019-03-05T14:31:47.000Z,997.8
2019-03-05T14:32:58.000Z,997.8
2019-03-05T14:34:11.000Z,997.8
2019-03-05T14:35:23.000Z,997.9
2019-03-05T14:36:36.000Z,997.8
2019-03-05T14:37:48.048Z,997.9
2019-03-05T14:39:00.000Z,997.9
2019-03-05T14:40:11.000Z,997.8
2019-03-05T14:41:24.000Z,997.8
2019-03-05T14:42:36.000Z,997.7
2019-03-05T14:43:49.449Z,997.8
2019-03-05T14:45:00.000Z,997.8
2019-03-05T14:46:12.000Z,997.9
2019-03-05T14:47:25.000Z,997.9
2019-03-05T14:48:38.226Z,997.9
2019-03-05T14:49:50.418Z,998
2019-03-05T14:51:02.619Z,997.9
2019-03-05T14:52:13.000Z,997.9
2019-03-05T14:53:26.000Z,997.8
2019-03-05T14:54:38.000Z,997.9
2019-03-05T14:57:02.000Z,997.9
2019-03-05T14:58:15.803Z,998
2019-03-05T14:59:26.000Z,997.9
2019-03-05T15:00:40.160Z,997.9
2019-03-05T15:01:51.000Z,998
2019-03-05T15:03:03.000Z,998
2019-03-05T15:04:16.744Z,998
2019-03-05T15:05:28.941Z,998.1
2019-03-05T15:06:41.127Z,998.1
2019-03-05T15:07:52.000Z,998
2019-03-05T15:09:04.000Z,998
2019-03-05T15:10:16.000Z,998
2019-03-05T15:11:28.000Z,998
2019-03-05T15:12:41.000Z,998.1
2019-03-05T15:13:54.000Z,998.2
2019-03-05T15:15:05.000Z,998.2
2019-03-05T15:16:18.678Z,998.2
2019-03-05T15:17:29.000Z,998.1
2019-03-05T15:18:42.000Z,998.2
2019-03-05T15:19:54.000Z,998.3
2019-03-05T15:21:07.000Z,998.3
2019-03-05T15:22:18.000Z,998.3
2019-03-05T15:23:31.845Z,998.3
2019-03-05T15:24:43.000Z,998.5
2019-03-05T15:25:56.238Z,998.4
2019-03-05T15:27:08.425Z,998.4
2019-03-05T15:28:19.000Z,998.4
2019-03-05T15:29:31.000Z,998.4
2019-03-05T15:30:45.004Z,998.4
2019-03-05T15:31:56.000Z,998.5
2019-03-05T15:33:08.000Z,998.8
2019-03-05T15:34:20.000Z,998.6
2019-03-05T15:35:32.000Z,998.8
2019-03-05T15:36:44.000Z,998.8
2019-03-05T15:37:58.169Z,998.8
2019-03-05T15:39:09.000Z,998.7
2019-03-05T15:40:22.000Z,998.7
2019-03-05T15:41:33.000Z,998.7
2019-03-05T15:42:45.000Z,998.6
2019-03-05T15:43:59.141Z,998.7
2019-03-05T15:45:10.000Z,998.6
2019-03-05T15:46:22.000Z,998.6
2019-03-05T15:47:34.000Z,998.6
2019-03-05T15:48:46.000Z,998.7
2019-03-05T15:49:59.000Z,998.6
2019-03-05T15:51:12.335Z,998.7
2019-03-05T15:52:24.496Z,998.7
2019-03-05T15:53:35.000Z,998.7
2019-03-05T15:54:47.000Z,998.8
2019-03-05T15:56:00.000Z,998.7
2019-03-05T15:57:13.268Z,998.8
2019-03-05T15:58:24.000Z,998.8
2019-03-05T15:59:37.000Z,998.8
2019-03-05T16:00:48.000Z,998.9
2019-03-05T16:02:01.000Z,998.9
2019-03-05T16:03:13.000Z,998.9
2019-03-05T16:04:25.000Z,998.9
2019-03-05T16:05:37.000Z,998.9
2019-03-05T16:06:50.000Z,998.9
2019-03-05T16:08:01.000Z,999
2019-03-05T16:09:15.000Z,999.1
2019-03-05T16:10:26.000Z,999
2019-03-05T16:11:38.000Z,999.1
2019-03-05T16:12:50.000Z,999.1
2019-03-05T16:14:03.000Z,999.2
2019-03-05T16:15:15.000Z,999.2
2019-03-05T16:16:27.000Z,999.4
2019-03-05T16:17:39.000Z,999.6
2019-03-05T16:20:03.000Z,999.8
2019-03-05T16:21:16.000Z,1000.2